YBVL weather

Blackville Airport
New South Wales, Australia

Public forecast

Using degrees Celsius for public forecast. Weather courtesy of forecast.io.

Closest aviation weather report (METAR) to Blackville Airport

Closest report is Tamworth Airport, 45.4 nm (84.0 km) NE. Retrieved 2020/03/29 14:30 UTC (7 minutes ago):

YSTW 291430Z AUTO 14005KT 9999 // NCD 17/15 Q1017 RF000/0000

Closest aviation forecast (TAF) to Blackville Airport

Closest forecast is Tamworth Airport, 45.4 nm (84.0 km) NE. Retrieved 2020/03/29 12:36 UTC (2 hours ago):

TAF TAF YSTW 291106Z 2912/3006 13008KT CAVOK FM300000 18008KT 9999 -RA SCT015 BKN030 TEMPO 3001/3006 3000 RA BKN010